createdAt,value
2022-10-13T00:00:48.487Z,430.88
2022-10-13T00:03:15.608Z,432.70
2022-10-13T00:05:48.152Z,417.90
2022-10-13T00:08:18.923Z,410.10
2022-10-13T00:10:46.854Z,405.38
2022-10-13T00:13:13.573Z,397.30
2022-10-13T00:15:42.339Z,403.58
2022-10-13T00:18:09.184Z,408.17
2022-10-13T00:20:35.880Z,410.50
2022-10-13T00:23:02.515Z,418.98
2022-10-13T00:25:29.116Z,423.25
2022-10-13T00:27:55.770Z,418.23
2022-10-13T00:30:23.202Z,424.42
2022-10-13T00:32:50.302Z,429.57
2022-10-13T00:35:16.936Z,432.92
2022-10-13T00:37:43.521Z,421.95
2022-10-13T00:40:10.589Z,425.38
2022-10-13T00:42:37.221Z,425.52
2022-10-13T00:45:24.814Z,423.63
2022-10-13T00:48:02.000Z,419.98
2022-10-13T00:50:42.242Z,420.42
2022-10-13T00:53:10.632Z,429.83
2022-10-13T00:55:39.759Z,421.80
2022-10-13T00:58:10.404Z,418.85
2022-10-13T01:00:37.045Z,403.83
2022-10-13T01:03:04.226Z,423.92
2022-10-13T01:05:31.245Z,408.30
2022-10-13T01:07:59.388Z,409.87
2022-10-13T01:10:35.164Z,421.23
2022-10-13T01:13:13.808Z,421.00
2022-10-13T01:15:57.248Z,427.63
2022-10-13T01:18:40.960Z,424.08
2022-10-13T01:21:16.603Z,421.65
2022-10-13T01:23:49.083Z,431.50
2022-10-13T01:26:21.574Z,423.42
2022-10-13T01:29:37.552Z,430.75
2022-10-13T01:32:10.797Z,439.80
2022-10-13T01:34:50.069Z,441.70
2022-10-13T01:37:34.767Z,441.10
2022-10-13T01:40:25.657Z,437.63
2022-10-13T01:43:04.317Z,434.92
2022-10-13T01:45:37.528Z,423.30
2022-10-13T01:48:06.137Z,422.08
2022-10-13T01:50:40.831Z,420.33
2022-10-13T01:53:08.544Z,419.15
2022-10-13T01:55:35.143Z,419.88
2022-10-13T01:58:01.696Z,426.90
2022-10-13T02:00:40.236Z,431.65
2022-10-13T02:03:21.306Z,435.92
2022-10-13T02:06:01.708Z,426.05
2022-10-13T02:08:48.885Z,425.65
2022-10-13T02:11:21.490Z,429.65
2022-10-13T02:13:57.601Z,424.98
2022-10-13T02:16:28.947Z,428.23
2022-10-13T02:18:57.122Z,426.48
2022-10-13T02:21:24.430Z,434.27
2022-10-13T02:23:51.636Z,435.50
2022-10-13T02:26:20.124Z,436.50
2022-10-13T02:28:51.294Z,439.00
2022-10-13T02:31:18.013Z,436.67
2022-10-13T02:33:44.534Z,430.23
2022-10-13T02:36:11.104Z,437.95
2022-10-13T02:38:37.582Z,426.47
2022-10-13T02:41:04.156Z,432.27
2022-10-13T02:43:30.877Z,437.83
2022-10-13T02:45:57.476Z,432.15
2022-10-13T02:48:24.040Z,445.15
2022-10-13T02:50:50.749Z,443.40
2022-10-13T02:53:17.751Z,439.85
2022-10-13T02:55:44.490Z,438.50
2022-10-13T02:58:11.071Z,434.77
2022-10-13T03:00:39.622Z,451.10
2022-10-13T03:03:06.745Z,462.67
2022-10-13T03:05:33.493Z,456.20
2022-10-13T03:08:00.012Z,456.13
2022-10-13T03:10:26.985Z,446.05
2022-10-13T03:12:55.765Z,438.25
2022-10-13T03:15:22.576Z,447.50
2022-10-13T03:17:49.488Z,449.70
2022-10-13T03:20:16.502Z,452.15
2022-10-13T03:22:46.056Z,462.23
2022-10-13T03:25:16.190Z,441.80
2022-10-13T03:27:43.319Z,441.20
2022-10-13T03:30:10.588Z,433.42
2022-10-13T03:32:38.923Z,438.27
2022-10-13T03:35:06.358Z,434.05
2022-10-13T03:37:32.961Z,443.30
2022-10-13T03:39:59.975Z,444.30
2022-10-13T03:42:26.511Z,446.20
2022-10-13T03:44:56.289Z,435.05
2022-10-13T03:47:23.758Z,437.75
2022-10-13T03:49:50.330Z,440.67
2022-10-13T03:52:17.132Z,428.53
2022-10-13T03:54:43.954Z,433.65
2022-10-13T03:57:10.505Z,428.37
2022-10-13T03:59:37.243Z,435.25
2022-10-13T04:02:04.494Z,431.10
2022-10-13T04:04:31.086Z,419.42
2022-10-13T04:06:57.735Z,416.48
2022-10-13T04:09:24.400Z,418.17
2022-10-13T04:11:52.318Z,425.05
2022-10-13T04:14:20.121Z,436.27
2022-10-13T04:16:46.822Z,432.30
2022-10-13T04:19:15.178Z,425.88
2022-10-13T04:21:42.799Z,420.42
2022-10-13T04:24:17.631Z,418.10
2022-10-13T04:26:45.158Z,408.95
2022-10-13T04:29:12.225Z,406.55
2022-10-13T04:31:40.669Z,408.48
2022-10-13T04:34:07.803Z,409.05
2022-10-13T04:36:34.442Z,420.73
2022-10-13T04:39:01.015Z,429.88
2022-10-13T04:41:27.874Z,420.10
2022-10-13T04:43:55.065Z,404.92
2022-10-13T04:46:24.467Z,405.50
2022-10-13T04:48:51.705Z,410.02
2022-10-13T04:51:24.050Z,413.40
2022-10-13T04:54:01.453Z,400.38
2022-10-13T04:56:28.753Z,383.35
2022-10-13T04:58:59.832Z,398.70
2022-10-13T05:01:26.681Z,400.87
2022-10-13T05:04:01.419Z,407.60
2022-10-13T05:06:33.136Z,410.30
2022-10-13T05:09:00.205Z,404.15
2022-10-13T05:11:29.878Z,384.17
2022-10-13T05:13:57.407Z,395.53
2022-10-13T05:16:24.975Z,408.55
2022-10-13T05:18:53.969Z,425.58
2022-10-13T05:21:30.455Z,418.77
2022-10-13T05:23:58.742Z,401.02
2022-10-13T05:26:29.060Z,411.40
2022-10-13T05:28:57.238Z,424.25
2022-10-13T05:31:26.862Z,421.70
2022-10-13T05:33:54.087Z,403.77
2022-10-13T05:36:33.516Z,417.17
2022-10-13T05:39:05.708Z,412.10
2022-10-13T05:41:32.675Z,408.67
2022-10-13T05:44:02.801Z,403.60
2022-10-13T05:46:29.481Z,416.70
2022-10-13T05:48:56.116Z,413.70
2022-10-13T05:51:26.980Z,414.48
2022-10-13T05:54:01.249Z,402.07
2022-10-13T05:56:36.743Z,407.75
2022-10-13T05:59:06.687Z,408.35
2022-10-13T06:01:38.143Z,399.17
2022-10-13T06:04:08.639Z,406.20
2022-10-13T06:06:35.569Z,401.17
2022-10-13T06:09:02.209Z,405.17
2022-10-13T06:11:28.873Z,406.13
2022-10-13T06:13:55.501Z,381.55
2022-10-13T06:16:22.118Z,378.60
2022-10-13T06:18:48.747Z,379.83
2022-10-13T06:21:15.282Z,390.50
2022-10-13T06:23:41.873Z,388.38
2022-10-13T06:26:11.281Z,396.00
2022-10-13T06:28:38.170Z,386.40
2022-10-13T06:31:06.517Z,385.07
2022-10-13T06:33:34.174Z,394.48
2022-10-13T06:36:05.054Z,404.95
2022-10-13T06:38:32.591Z,398.10
2022-10-13T06:41:01.052Z,409.70
2022-10-13T06:43:37.251Z,392.40
2022-10-13T06:46:09.742Z,415.27
2022-10-13T06:48:36.321Z,427.33
2022-10-13T06:51:05.547Z,373.75
2022-10-13T06:53:32.494Z,387.80
2022-10-13T06:56:00.616Z,393.53
2022-10-13T06:58:28.313Z,386.67
2022-10-13T07:00:55.699Z,397.42
2022-10-13T07:03:23.923Z,398.70
2022-10-13T07:05:50.502Z,390.77
2022-10-13T07:08:17.153Z,390.45
2022-10-13T07:10:43.737Z,383.88
2022-10-13T07:13:10.270Z,367.60
2022-10-13T07:15:40.573Z,373.40
2022-10-13T07:18:07.438Z,379.55
2022-10-13T07:20:34.334Z,376.05
2022-10-13T07:23:00.954Z,377.70
2022-10-13T07:25:28.099Z,366.35
2022-10-13T07:27:54.821Z,360.67
2022-10-13T07:30:21.492Z,349.33
2022-10-13T07:32:48.874Z,364.20
2022-10-13T07:35:15.602Z,369.02
2022-10-13T07:37:42.150Z,366.58
2022-10-13T07:40:09.340Z,388.00
2022-10-13T07:42:36.065Z,375.55
2022-10-13T07:45:02.812Z,384.08
2022-10-13T07:47:30.433Z,393.38
2022-10-13T07:49:57.039Z,381.45
2022-10-13T07:52:23.595Z,376.15
2022-10-13T07:54:51.287Z,388.67
2022-10-13T07:57:18.344Z,391.02
2022-10-13T07:59:45.172Z,388.95
2022-10-13T08:02:13.198Z,376.10
2022-10-13T08:04:39.828Z,390.00
2022-10-13T08:07:06.906Z,385.00
2022-10-13T08:09:33.747Z,394.88
2022-10-13T08:12:01.778Z,399.50
2022-10-13T08:14:29.586Z,387.60
2022-10-13T08:16:57.079Z,391.75
2022-10-13T08:19:26.298Z,392.55
2022-10-13T08:21:58.195Z,392.38
2022-10-13T08:24:26.312Z,395.58
2022-10-13T08:26:53.122Z,375.35
2022-10-13T08:29:22.359Z,370.25
2022-10-13T08:31:52.737Z,351.27
2022-10-13T08:34:20.252Z,354.73
2022-10-13T08:36:47.271Z,331.10
2022-10-13T08:39:14.109Z,328.33
2022-10-13T08:41:43.958Z,328.97
2022-10-13T08:47:24.573Z,311.57
2022-10-13T08:49:52.149Z,304.08
2022-10-13T08:52:28.347Z,313.53
2022-10-13T08:54:56.366Z,316.52
2022-10-13T08:57:23.469Z,314.88
2022-10-13T08:59:51.374Z,327.88
2022-10-13T09:02:29.871Z,324.52
2022-10-13T09:04:58.802Z,324.30
2022-10-13T09:07:29.853Z,332.13
2022-10-13T09:09:56.554Z,322.23
2022-10-13T09:12:25.226Z,325.83
2022-10-13T09:15:05.699Z,320.80
2022-10-13T09:17:34.141Z,324.58
2022-10-13T09:20:16.529Z,330.58
2022-10-13T09:22:43.897Z,325.90
2022-10-13T09:25:22.186Z,332.83
2022-10-13T09:28:00.554Z,328.73
2022-10-13T09:30:34.649Z,332.13
2022-10-13T09:33:09.371Z,336.73
2022-10-13T09:35:36.958Z,331.95
2022-10-13T09:38:04.503Z,329.83
2022-10-13T09:40:32.336Z,339.48
2022-10-13T09:43:01.782Z,337.25
2022-10-13T09:45:30.948Z,340.75
2022-10-13T09:48:05.643Z,337.58
2022-10-13T09:50:35.513Z,339.08
2022-10-13T09:53:26.386Z,333.00
2022-10-13T09:56:23.474Z,317.80
2022-10-13T09:59:06.193Z,320.10
2022-10-13T10:01:38.674Z,300.50
2022-10-13T10:04:10.959Z,306.52
2022-10-13T10:06:40.365Z,310.67
2022-10-13T10:09:34.896Z,311.40
2022-10-13T10:12:04.050Z,311.08
2022-10-13T10:14:37.710Z,301.70
2022-10-13T10:17:35.257Z,293.30
2022-10-13T10:20:17.127Z,289.17
2022-10-13T10:23:14.122Z,293.42
2022-10-13T10:25:46.693Z,298.00
2022-10-13T10:28:56.990Z,290.92
2022-10-13T10:31:50.471Z,281.52
2022-10-13T10:34:54.485Z,278.05
2022-10-13T10:37:33.257Z,279.20
2022-10-13T10:40:08.835Z,268.42
2022-10-13T10:42:53.706Z,275.35
2022-10-13T10:45:27.403Z,266.98
2022-10-13T10:47:59.598Z,266.15
2022-10-13T10:50:28.605Z,263.75
2022-10-13T10:53:33.028Z,269.52
2022-10-13T10:56:30.687Z,270.80
2022-10-13T10:59:22.614Z,278.35
2022-10-13T11:02:03.759Z,274.45
2022-10-13T11:04:44.248Z,280.42
2022-10-13T11:07:24.290Z,275.70
2022-10-13T11:09:57.371Z,275.65
2022-10-13T11:12:25.961Z,265.03
2022-10-13T11:15:13.992Z,269.20
2022-10-13T11:17:41.914Z,265.45
2022-10-13T11:20:18.169Z,274.10
2022-10-13T11:23:00.162Z,269.83
2022-10-13T11:25:35.871Z,266.65
2022-10-13T11:28:42.658Z,275.95
2022-10-13T11:31:13.987Z,280.87
2022-10-13T11:33:40.652Z,270.80
2022-10-13T11:36:37.970Z,267.92
2022-10-13T11:42:14.777Z,244.98
2022-10-13T11:44:54.544Z,249.73
2022-10-13T11:47:48.968Z,248.07
2022-10-13T11:50:33.307Z,253.05
2022-10-13T11:53:18.746Z,255.63
2022-10-13T11:55:58.785Z,244.70
2022-10-13T11:58:32.932Z,256.05
2022-10-13T12:01:01.145Z,260.38
2022-10-13T12:03:33.895Z,272.27
2022-10-13T12:06:06.294Z,286.80
2022-10-13T12:08:35.294Z,286.40
2022-10-13T12:11:07.533Z,284.40
2022-10-13T12:13:36.177Z,301.60
2022-10-13T12:16:06.306Z,312.55
2022-10-13T12:18:39.069Z,314.23
2022-10-13T12:21:17.312Z,309.20
2022-10-13T12:23:44.091Z,314.15
2022-10-13T12:26:20.432Z,311.00
2022-10-13T12:28:51.906Z,351.48
2022-10-13T12:31:22.377Z,354.97
2022-10-13T12:34:00.451Z,345.33
2022-10-13T12:36:31.276Z,356.90
2022-10-13T12:39:07.670Z,349.92
2022-10-13T12:41:40.751Z,356.30
2022-10-13T12:44:15.051Z,367.70
2022-10-13T12:46:42.897Z,369.83
2022-10-13T12:51:49.379Z,357.35
2022-10-13T12:54:21.053Z,367.38
2022-10-13T12:56:53.779Z,361.20
2022-10-13T12:59:24.386Z,386.40
2022-10-13T13:02:20.038Z,369.88
2022-10-13T13:04:47.201Z,382.75
2022-10-13T13:07:31.748Z,382.38
2022-10-13T13:10:00.830Z,368.30
2022-10-13T13:12:29.214Z,358.23
2022-10-13T13:14:56.792Z,341.10
2022-10-13T13:17:57.290Z,323.85
2022-10-13T13:20:22.937Z,333.00
2022-10-13T13:22:50.744Z,338.98
2022-10-13T13:25:17.340Z,339.67
2022-10-13T13:27:43.843Z,340.23
2022-10-13T13:30:16.924Z,364.60
2022-10-13T13:32:43.570Z,351.37
2022-10-13T13:35:10.477Z,374.55
2022-10-13T13:37:44.465Z,357.55
2022-10-13T13:40:24.033Z,368.10
2022-10-13T13:42:50.851Z,341.15
2022-10-13T13:45:21.212Z,352.25
2022-10-13T13:47:49.784Z,337.52
2022-10-13T13:50:22.011Z,343.50
2022-10-13T13:52:56.241Z,337.30
2022-10-13T13:55:23.347Z,341.30
2022-10-13T13:57:49.922Z,352.02
2022-10-13T14:00:17.950Z,361.35
2022-10-13T14:02:49.538Z,370.48
2022-10-13T14:05:16.314Z,367.40
2022-10-13T14:07:42.970Z,353.88
2022-10-13T14:10:10.811Z,358.48
2022-10-13T14:12:37.742Z,374.10
2022-10-13T14:15:05.014Z,367.15
2022-10-13T14:17:31.629Z,357.13
2022-10-13T14:20:00.305Z,359.35
2022-10-13T14:22:27.084Z,359.88
2022-10-13T14:24:54.299Z,355.50
2022-10-13T14:27:21.126Z,350.30
2022-10-13T14:29:47.780Z,356.60
2022-10-13T14:32:15.496Z,366.70
2022-10-13T14:34:42.092Z,361.35
2022-10-13T14:37:08.642Z,359.83
2022-10-13T14:39:35.257Z,364.38
2022-10-13T14:42:01.901Z,374.23
2022-10-13T14:44:28.631Z,366.55
2022-10-13T14:46:55.316Z,367.45
2022-10-13T14:49:22.387Z,374.90
2022-10-13T14:51:51.270Z,369.70
2022-10-13T14:54:18.625Z,374.10
2022-10-13T14:56:45.359Z,378.52
2022-10-13T14:59:12.784Z,394.52
2022-10-13T15:01:41.736Z,369.88
2022-10-13T15:04:09.124Z,375.20
2022-10-13T15:06:40.290Z,373.70
2022-10-13T15:11:36.435Z,356.58
2022-10-13T15:14:03.238Z,339.70
2022-10-13T15:16:33.590Z,335.25
2022-10-13T15:19:00.442Z,331.02
2022-10-13T15:21:27.092Z,324.73
2022-10-13T15:23:53.786Z,331.02
2022-10-13T15:26:20.599Z,345.00
2022-10-13T15:28:51.108Z,338.77
2022-10-13T15:31:19.388Z,344.50
2022-10-13T15:33:49.320Z,343.27
2022-10-13T15:36:17.041Z,324.40
2022-10-13T15:38:45.654Z,329.25
2022-10-13T15:41:12.898Z,319.80
2022-10-13T15:43:39.578Z,310.58
2022-10-13T15:46:10.447Z,331.85
2022-10-13T15:48:37.383Z,331.52
2022-10-13T15:51:13.457Z,339.58
2022-10-13T15:53:40.090Z,321.50
2022-10-13T15:56:07.793Z,313.90
2022-10-13T15:58:35.898Z,339.30
2022-10-13T16:01:07.501Z,346.08
2022-10-13T16:03:34.328Z,349.98
2022-10-13T16:06:04.422Z,339.38
2022-10-13T16:08:31.528Z,339.58
2022-10-13T16:10:58.174Z,357.50
2022-10-13T16:13:24.817Z,348.58
2022-10-13T16:16:01.142Z,350.42
2022-10-13T16:18:32.522Z,359.17
2022-10-13T16:20:59.188Z,363.77
2022-10-13T16:23:26.253Z,363.02
2022-10-13T16:25:53.153Z,364.48
2022-10-13T16:28:19.952Z,364.63
2022-10-13T16:30:46.577Z,362.38
2022-10-13T16:33:13.167Z,370.02
2022-10-13T16:35:39.863Z,356.02
2022-10-13T16:38:06.465Z,364.15
2022-10-13T16:40:33.073Z,345.75
2022-10-13T16:42:59.698Z,356.38
2022-10-13T16:45:41.334Z,358.92
2022-10-13T16:48:13.122Z,363.58
2022-10-13T16:50:39.633Z,365.27
2022-10-13T16:53:06.199Z,369.25
2022-10-13T16:55:32.846Z,370.77
2022-10-13T16:57:59.460Z,363.55
2022-10-13T17:00:26.160Z,357.33
2022-10-13T17:02:53.104Z,345.15
2022-10-13T17:05:19.727Z,354.33
2022-10-13T17:07:46.350Z,329.30
2022-10-13T17:10:12.933Z,342.23
2022-10-13T17:12:39.554Z,330.88
2022-10-13T17:15:06.569Z,324.40
2022-10-13T17:17:33.222Z,317.65
2022-10-13T17:19:59.844Z,313.77
2022-10-13T17:22:26.474Z,323.98
2022-10-13T17:24:53.142Z,316.45
2022-10-13T17:27:20.096Z,325.05
2022-10-13T17:29:46.974Z,331.60
2022-10-13T17:32:13.613Z,327.25
2022-10-13T17:34:40.250Z,332.55
2022-10-13T17:37:07.330Z,352.80
2022-10-13T17:39:34.392Z,365.45
2022-10-13T17:42:01.034Z,364.88
2022-10-13T17:44:27.636Z,354.38
2022-10-13T17:46:54.195Z,351.07
2022-10-13T17:49:20.866Z,351.10
2022-10-13T17:51:51.702Z,352.27
2022-10-13T17:54:22.311Z,360.63
2022-10-13T17:56:49.444Z,345.60
2022-10-13T17:59:17.571Z,357.38
2022-10-13T18:01:45.101Z,359.03
2022-10-13T18:04:14.224Z,358.40
2022-10-13T18:06:43.720Z,366.80
2022-10-13T18:09:16.528Z,358.65
2022-10-13T18:11:49.821Z,361.83
2022-10-13T18:14:18.546Z,362.98
2022-10-13T18:16:45.446Z,357.00
2022-10-13T18:19:12.647Z,364.73
2022-10-13T18:21:39.300Z,360.42
2022-10-13T18:24:06.271Z,364.20
2022-10-13T18:26:35.775Z,358.98
2022-10-13T18:29:03.907Z,357.55
2022-10-13T18:31:32.801Z,349.95
2022-10-13T18:34:02.492Z,365.08
2022-10-13T18:36:36.629Z,359.05
2022-10-13T18:39:13.679Z,360.23
2022-10-13T18:41:45.957Z,356.63
2022-10-13T18:44:13.039Z,360.00
2022-10-13T18:46:40.370Z,358.70
2022-10-13T18:49:08.537Z,369.35
2022-10-13T18:51:39.016Z,368.30
2022-10-13T18:54:06.726Z,368.42
2022-10-13T18:56:34.777Z,372.27
2022-10-13T18:59:02.729Z,358.80
2022-10-13T19:01:31.932Z,345.77
2022-10-13T19:03:58.631Z,355.20
2022-10-13T19:06:27.665Z,360.13
2022-10-13T19:09:04.298Z,353.42
2022-10-13T19:11:35.387Z,355.45
2022-10-13T19:14:03.045Z,352.33
2022-10-13T19:16:31.345Z,355.63
2022-10-13T19:18:58.023Z,360.38
2022-10-13T19:21:25.060Z,344.65
2022-10-13T19:23:51.730Z,365.45
2022-10-13T19:26:28.418Z,362.70
2022-10-13T19:29:07.455Z,370.67
2022-10-13T19:31:35.664Z,372.27
2022-10-13T19:34:06.986Z,362.13
2022-10-13T19:36:37.737Z,375.45
2022-10-13T19:39:09.278Z,362.70
2022-10-13T19:41:38.218Z,374.85
2022-10-13T19:44:04.916Z,369.88
2022-10-13T19:46:38.539Z,371.63
2022-10-13T19:49:05.678Z,370.45
2022-10-13T19:51:33.504Z,382.08
2022-10-13T19:54:00.754Z,369.10
2022-10-13T19:56:33.912Z,360.45
2022-10-13T19:59:01.852Z,366.05
2022-10-13T20:01:28.575Z,366.92
2022-10-13T20:03:57.456Z,367.17
2022-10-13T20:06:24.079Z,364.08
2022-10-13T20:08:50.714Z,371.30
2022-10-13T20:11:24.127Z,357.35
2022-10-13T20:13:52.046Z,376.67
2022-10-13T20:16:21.416Z,376.55
2022-10-13T20:18:56.309Z,371.83
2022-10-13T20:21:24.078Z,367.87
2022-10-13T20:23:51.251Z,359.43
2022-10-13T20:26:18.855Z,361.60
2022-10-13T20:28:46.939Z,366.75
2022-10-13T20:31:15.945Z,360.83
2022-10-13T20:33:42.721Z,357.55
2022-10-13T20:36:12.467Z,374.25
2022-10-13T20:38:39.502Z,380.23
2022-10-13T20:41:24.857Z,386.58
2022-10-13T20:43:53.163Z,388.40
2022-10-13T20:46:21.598Z,389.55
2022-10-13T20:51:36.504Z,392.52
2022-10-13T20:54:03.093Z,391.55
2022-10-13T20:56:29.884Z,400.95
2022-10-13T20:58:56.700Z,400.67
2022-10-13T21:01:23.877Z,398.00
2022-10-13T21:03:54.459Z,399.65
2022-10-13T21:06:23.407Z,399.02
2022-10-13T21:08:50.821Z,402.10
2022-10-13T21:11:20.356Z,410.95
2022-10-13T21:13:48.075Z,404.33
2022-10-13T21:16:17.350Z,406.67
2022-10-13T21:18:49.058Z,412.98
2022-10-13T21:21:19.279Z,421.10
2022-10-13T21:23:57.786Z,430.02
2022-10-13T21:26:26.919Z,430.50
2022-10-13T21:28:53.680Z,425.53
2022-10-13T21:31:22.220Z,419.17
2022-10-13T21:33:49.712Z,425.23
2022-10-13T21:36:23.246Z,419.13
2022-10-13T21:38:55.869Z,427.47
2022-10-13T21:41:23.002Z,421.08
2022-10-13T21:43:50.473Z,435.57
2022-10-13T21:46:26.703Z,436.98
2022-10-13T21:48:55.262Z,427.17
2022-10-13T21:51:24.657Z,435.25
2022-10-13T21:53:56.862Z,435.20
2022-10-13T21:56:25.491Z,425.73
2022-10-13T21:58:52.376Z,441.27
2022-10-13T22:01:19.818Z,445.58
2022-10-13T22:03:48.008Z,444.85
2022-10-13T22:06:19.370Z,438.98
2022-10-13T22:08:48.781Z,441.10
2022-10-13T22:11:22.729Z,447.88
2022-10-13T22:13:49.628Z,409.52
2022-10-13T22:16:20.680Z,435.83
2022-10-13T22:18:48.400Z,456.13
2022-10-13T22:21:25.204Z,442.58
2022-10-13T22:23:52.049Z,462.58
2022-10-13T22:26:19.140Z,455.42
2022-10-13T22:28:51.320Z,461.15
2022-10-13T22:31:18.743Z,467.23
2022-10-13T22:33:46.472Z,466.48
2022-10-13T22:36:18.622Z,471.35
2022-10-13T22:38:46.845Z,463.13
2022-10-13T22:41:14.759Z,465.17
2022-10-13T22:43:46.626Z,471.77
2022-10-13T22:46:15.099Z,472.00
2022-10-13T22:48:41.931Z,474.58
2022-10-13T22:51:15.819Z,469.37
2022-10-13T22:53:42.637Z,476.42
2022-10-13T22:56:12.985Z,481.05
2022-10-13T22:58:39.677Z,479.23
2022-10-13T23:01:14.572Z,482.30
2022-10-13T23:03:42.395Z,493.50
2022-10-13T23:06:13.492Z,496.65
2022-10-13T23:08:41.598Z,503.67
2022-10-13T23:11:08.338Z,492.87
2022-10-13T23:13:35.341Z,487.50
2022-10-13T23:16:10.443Z,486.63
2022-10-13T23:18:42.648Z,485.38
2022-10-13T23:21:23.923Z,490.10
2022-10-13T23:24:04.691Z,486.45
2022-10-13T23:26:32.396Z,491.85
2022-10-13T23:28:59.729Z,489.90
2022-10-13T23:31:27.507Z,493.90
2022-10-13T23:33:54.371Z,494.58
2022-10-13T23:36:24.243Z,495.10
2022-10-13T23:39:03.602Z,504.65
2022-10-13T23:41:30.663Z,503.33
2022-10-13T23:43:57.591Z,498.05
2022-10-13T23:46:24.670Z,507.58
2022-10-13T23:48:51.603Z,503.83
2022-10-13T23:51:20.517Z,498.10
2022-10-13T23:53:47.373Z,487.70
2022-10-13T23:56:15.152Z,506.80
2022-10-13T23:58:43.789Z,521.88
